createdAt,value
2023-03-21T00:00:44.915Z,10.57
2023-03-21T00:03:51.612Z,11.20
2023-03-21T00:06:56.288Z,11.38
2023-03-21T00:10:12.377Z,13.68
2023-03-21T00:13:19.130Z,14.57
2023-03-21T00:16:28.133Z,11.77
2023-03-21T00:19:41.892Z,14.30
2023-03-21T00:22:46.688Z,14.23
2023-03-21T00:25:51.339Z,10.98
2023-03-21T00:28:55.816Z,14.68
2023-03-21T00:32:00.416Z,10.40
2023-03-21T00:35:38.390Z,13.55
2023-03-21T00:38:30.208Z,13.73
2023-03-21T00:41:42.518Z,11.43
2023-03-21T00:44:47.636Z,13.40
2023-03-21T00:47:52.336Z,12.07
2023-03-21T00:51:00.481Z,8.88
2023-03-21T00:54:05.648Z,9.57
2023-03-21T00:57:10.177Z,8.70
2023-03-21T01:00:16.128Z,8.85
2023-03-21T01:03:24.951Z,11.25
2023-03-21T01:06:30.318Z,6.55
2023-03-21T01:09:34.831Z,6.65
2023-03-21T01:12:39.485Z,7.40
2023-03-21T01:15:47.757Z,7.13
2023-03-21T01:18:52.879Z,8.82
2023-03-21T01:21:58.217Z,8.07
2023-03-21T01:25:21.249Z,8.55
2023-03-21T01:28:28.352Z,9.23
2023-03-21T01:31:33.025Z,9.68
2023-03-21T01:34:37.618Z,8.88
2023-03-21T01:37:43.523Z,9.95
2023-03-21T01:40:50.215Z,12.55
2023-03-21T01:44:15.605Z,13.40
2023-03-21T01:47:21.403Z,11.88
2023-03-21T01:50:58.722Z,11.63
2023-03-21T01:54:28.661Z,11.93
2023-03-21T01:57:49.480Z,13.55
2023-03-21T02:00:58.036Z,13.20
2023-03-21T02:04:12.009Z,15.30
2023-03-21T02:07:28.701Z,14.30
2023-03-21T02:10:45.584Z,16.40
2023-03-21T02:14:04.361Z,19.30
2023-03-21T02:17:41.191Z,15.27
2023-03-21T02:24:48.895Z,15.30
2023-03-21T02:28:09.651Z,11.88
2023-03-21T02:31:24.970Z,13.40
2023-03-21T02:34:48.369Z,14.05
2023-03-21T02:38:08.674Z,14.40
2023-03-21T02:41:21.304Z,16.13
2023-03-21T02:44:39.749Z,14.18
2023-03-21T02:47:49.668Z,19.45
2023-03-21T02:50:57.697Z,15.00
2023-03-21T02:54:28.164Z,12.63
2023-03-21T02:57:42.186Z,15.80
2023-03-21T03:00:50.090Z,15.48
2023-03-21T03:04:27.396Z,12.43
2023-03-21T03:07:57.371Z,13.88
2023-03-21T03:11:14.826Z,13.25
2023-03-21T03:14:56.520Z,16.38
2023-03-21T03:18:34.723Z,16.33
2023-03-21T03:21:45.712Z,15.57
2023-03-21T03:25:17.753Z,14.23
2023-03-21T03:28:33.384Z,15.77
2023-03-21T03:31:43.451Z,15.70
2023-03-21T03:34:56.195Z,12.63
2023-03-21T03:38:06.835Z,13.10
2023-03-21T03:41:22.050Z,13.73
2023-03-21T03:44:33.328Z,14.98
2023-03-21T03:47:57.138Z,15.90
2023-03-21T03:51:13.882Z,13.88
2023-03-21T03:54:40.412Z,13.45
2023-03-21T03:57:45.397Z,18.05
2023-03-21T04:00:51.387Z,16.80
2023-03-21T04:04:10.404Z,16.67
2023-03-21T04:07:17.490Z,17.17
2023-03-21T04:10:22.939Z,14.48
2023-03-21T04:13:27.903Z,14.73
2023-03-21T04:16:47.205Z,15.18
2023-03-21T04:19:53.818Z,15.73
2023-03-21T04:23:02.915Z,15.13
2023-03-21T04:26:08.596Z,13.68
2023-03-21T04:29:17.413Z,14.85
2023-03-21T04:32:42.671Z,13.23
2023-03-21T04:35:56.189Z,16.25
2023-03-21T04:39:04.835Z,13.18
2023-03-21T04:42:10.402Z,12.40
2023-03-21T04:45:16.136Z,14.23
2023-03-21T04:48:24.630Z,19.38
2023-03-21T04:51:29.986Z,13.60
2023-03-21T04:54:34.525Z,12.73
2023-03-21T04:57:39.422Z,14.18
2023-03-21T05:00:44.595Z,13.10
2023-03-21T05:03:49.243Z,11.55
2023-03-21T05:06:54.858Z,13.77
2023-03-21T05:10:01.320Z,12.27
2023-03-21T05:13:08.135Z,13.48
2023-03-21T05:16:12.798Z,12.57
2023-03-21T05:19:19.077Z,12.02
2023-03-21T05:22:26.848Z,12.90
2023-03-21T05:25:34.814Z,24.15
2023-03-21T05:28:53.439Z,45.03
2023-03-21T05:31:59.686Z,52.65
2023-03-21T05:35:04.595Z,46.47
2023-03-21T05:38:09.315Z,13.35
2023-03-21T05:41:24.924Z,15.63
2023-03-21T05:44:29.447Z,14.73
2023-03-21T05:47:34.176Z,30.48
2023-03-21T05:50:39.583Z,18.65
2023-03-21T05:53:49.998Z,13.07
2023-03-21T05:56:54.522Z,14.35
2023-03-21T06:00:10.358Z,14.25
2023-03-21T06:03:21.182Z,16.80
2023-03-21T06:06:39.440Z,14.00
2023-03-21T06:09:44.242Z,15.43
2023-03-21T06:12:48.922Z,13.35
2023-03-21T06:16:05.188Z,17.48
2023-03-21T06:19:12.341Z,18.35
2023-03-21T06:22:33.880Z,21.35
2023-03-21T06:25:39.948Z,22.50
2023-03-21T06:28:44.761Z,34.78
2023-03-21T06:31:49.440Z,29.77
2023-03-21T06:34:54.960Z,20.02
2023-03-21T06:37:59.766Z,14.88
2023-03-21T06:41:09.132Z,26.98
2023-03-21T06:44:19.392Z,11.25
2023-03-21T06:47:32.112Z,19.45
2023-03-21T06:50:37.961Z,28.20
2023-03-21T06:53:42.802Z,18.35
2023-03-21T07:00:09.388Z,10.05
2023-03-21T07:03:19.285Z,13.82
2023-03-21T07:06:28.495Z,12.50
2023-03-21T07:09:33.389Z,15.88
2023-03-21T07:12:42.572Z,16.17
2023-03-21T07:16:02.805Z,25.75
2023-03-21T07:19:07.403Z,12.13
2023-03-21T07:22:12.030Z,18.85
2023-03-21T07:25:18.004Z,15.55
2023-03-21T07:28:23.461Z,17.88
2023-03-21T07:31:29.929Z,15.30
2023-03-21T07:34:34.559Z,17.90
2023-03-21T07:37:41.489Z,14.45
2023-03-21T07:40:47.151Z,12.13
2023-03-21T07:43:51.778Z,9.93
2023-03-21T07:46:56.868Z,11.77
2023-03-21T07:50:04.362Z,9.30
2023-03-21T07:53:08.975Z,9.52
2023-03-21T07:56:13.534Z,9.82
2023-03-21T07:59:18.027Z,13.23
2023-03-21T08:02:22.534Z,7.30
2023-03-21T08:05:30.184Z,9.00
2023-03-21T08:08:34.717Z,7.07
2023-03-21T08:11:40.581Z,8.68
2023-03-21T08:14:45.138Z,9.23
2023-03-21T08:17:49.807Z,11.13
2023-03-21T08:20:56.554Z,7.95
2023-03-21T08:24:01.591Z,7.00
2023-03-21T08:27:06.499Z,7.38
2023-03-21T08:30:14.144Z,8.25
2023-03-21T08:33:18.932Z,9.63
2023-03-21T08:36:23.986Z,8.65
2023-03-21T08:39:28.817Z,7.60
2023-03-21T08:42:33.824Z,7.70
2023-03-21T08:45:38.589Z,6.07
2023-03-21T08:48:43.413Z,8.07
2023-03-21T08:51:47.958Z,8.60
2023-03-21T08:54:53.383Z,7.18
2023-03-21T08:57:58.213Z,9.55
2023-03-21T09:01:04.207Z,8.63
2023-03-21T09:04:10.962Z,8.80
2023-03-21T09:07:17.969Z,6.85
2023-03-21T09:10:23.404Z,8.00
2023-03-21T09:13:28.453Z,13.40
2023-03-21T09:16:33.944Z,8.77
2023-03-21T09:19:38.822Z,7.90
2023-03-21T09:22:43.676Z,9.77
2023-03-21T09:25:48.493Z,7.15
2023-03-21T09:28:53.677Z,9.70
2023-03-21T09:31:58.756Z,10.18
2023-03-21T09:35:05.701Z,7.90
2023-03-21T09:38:10.589Z,6.38
2023-03-21T09:41:39.526Z,8.43
2023-03-21T09:45:06.443Z,5.20
2023-03-21T09:48:30.225Z,6.25
2023-03-21T09:51:45.734Z,5.20
2023-03-21T09:54:51.010Z,3.42
2023-03-21T09:58:28.217Z,5.72
2023-03-21T10:01:34.103Z,8.90
2023-03-21T10:04:38.945Z,7.65
2023-03-21T10:07:56.789Z,6.60
2023-03-21T10:11:23.923Z,9.88
2023-03-21T10:14:32.907Z,6.13
2023-03-21T10:17:43.590Z,5.85
2023-03-21T10:20:49.719Z,7.75
2023-03-21T10:23:57.586Z,7.15
2023-03-21T10:27:03.763Z,6.13
2023-03-21T10:30:12.215Z,4.55
2023-03-21T10:33:21.640Z,14.90
2023-03-21T10:36:29.077Z,9.27
2023-03-21T10:39:39.832Z,5.00
2023-03-21T10:42:44.683Z,5.85
2023-03-21T10:45:49.395Z,5.05
2023-03-21T10:48:54.426Z,8.15
2023-03-21T10:52:03.257Z,5.20
2023-03-21T10:55:21.630Z,5.07
2023-03-21T10:58:29.455Z,5.13
2023-03-21T11:01:46.537Z,6.72
2023-03-21T11:04:53.161Z,6.57
2023-03-21T11:08:04.417Z,4.60
2023-03-21T11:11:12.513Z,6.35
2023-03-21T11:14:34.058Z,7.22
2023-03-21T11:17:39.125Z,5.65
2023-03-21T11:21:05.187Z,5.32
2023-03-21T11:24:16.238Z,6.40
2023-03-21T11:27:21.174Z,4.35
2023-03-21T11:30:27.819Z,3.97
2023-03-21T11:33:45.956Z,4.75
2023-03-21T11:36:51.206Z,4.03
2023-03-21T11:40:06.833Z,3.80
2023-03-21T11:43:18.035Z,4.60
2023-03-21T11:46:25.554Z,3.72
2023-03-21T11:49:30.938Z,4.60
2023-03-21T11:52:41.154Z,3.95
2023-03-21T11:56:09.799Z,3.80
2023-03-21T11:59:23.221Z,3.60
2023-03-21T12:02:55.776Z,6.53
2023-03-21T12:06:03.058Z,4.13
2023-03-21T12:09:29.331Z,4.50
2023-03-21T12:12:50.037Z,7.13
2023-03-21T12:16:26.803Z,5.85
2023-03-21T12:19:39.345Z,19.15
2023-03-21T12:23:00.981Z,4.68
2023-03-21T12:26:29.339Z,3.28
2023-03-21T12:29:56.955Z,4.28
2023-03-21T12:33:33.371Z,6.78
2023-03-21T12:36:55.168Z,4.22
2023-03-21T12:40:34.838Z,3.00
2023-03-21T12:43:49.400Z,4.80
2023-03-21T12:46:58.514Z,5.78
2023-03-21T12:50:19.412Z,4.88
2023-03-21T12:53:56.565Z,4.78
2023-03-21T12:57:07.803Z,5.13
2023-03-21T13:00:38.241Z,5.43
2023-03-21T13:03:50.886Z,4.93
2023-03-21T13:06:57.670Z,3.90
2023-03-21T13:10:12.186Z,6.85
2023-03-21T13:13:31.950Z,5.10
2023-03-21T13:17:04.532Z,6.68
2023-03-21T13:20:24.736Z,5.15
2023-03-21T13:23:37.849Z,5.35
2023-03-21T13:26:50.025Z,4.05
2023-03-21T13:30:02.761Z,4.70
2023-03-21T13:33:13.686Z,10.27
2023-03-21T13:36:28.694Z,3.45
2023-03-21T13:39:33.275Z,4.10
2023-03-21T13:42:45.020Z,3.33
2023-03-21T13:45:53.796Z,3.75
2023-03-21T13:48:59.762Z,4.78
2023-03-21T13:52:11.020Z,5.10
2023-03-21T13:55:19.937Z,4.03
2023-03-21T13:58:36.449Z,4.07
2023-03-21T14:01:57.755Z,4.60
2023-03-21T14:05:07.277Z,4.28
2023-03-21T14:08:27.738Z,5.22
2023-03-21T14:11:44.439Z,4.53
2023-03-21T14:15:06.831Z,6.10
2023-03-21T14:18:41.147Z,5.75
2023-03-21T14:21:53.916Z,4.20
2023-03-21T14:25:02.240Z,4.70
2023-03-21T14:28:14.414Z,3.97
2023-03-21T14:31:20.990Z,5.13
2023-03-21T14:34:29.444Z,4.05
2023-03-21T14:37:39.249Z,4.95
2023-03-21T14:40:49.497Z,4.75
2023-03-21T14:44:12.417Z,6.72
2023-03-21T14:47:28.906Z,4.60
2023-03-21T14:50:42.268Z,6.65
2023-03-21T14:53:47.270Z,5.20
2023-03-21T14:56:56.605Z,4.30
2023-03-21T15:00:13.542Z,6.63
2023-03-21T15:03:20.440Z,4.82
2023-03-21T15:06:25.491Z,6.43
2023-03-21T15:09:33.515Z,5.18
2023-03-21T15:12:38.275Z,4.95
2023-03-21T15:15:43.957Z,6.53
2023-03-21T15:18:49.776Z,4.85
2023-03-21T15:22:01.167Z,6.43
2023-03-21T15:25:08.984Z,3.70
2023-03-21T15:28:14.834Z,4.60
2023-03-21T15:31:23.255Z,6.85
2023-03-21T15:34:29.864Z,3.40
2023-03-21T15:37:36.733Z,5.75
2023-03-21T15:40:41.571Z,6.47
2023-03-21T15:44:08.963Z,5.28
2023-03-21T15:47:13.861Z,5.40
2023-03-21T15:50:24.345Z,4.68
2023-03-21T15:53:33.538Z,4.72
2023-03-21T15:56:42.368Z,3.50
2023-03-21T15:59:47.857Z,4.57
2023-03-21T16:03:00.554Z,4.53
2023-03-21T16:06:17.571Z,5.38
2023-03-21T16:09:23.626Z,6.40
2023-03-21T16:12:28.166Z,4.65
2023-03-21T16:15:32.949Z,5.63
2023-03-21T16:18:37.604Z,3.72
2023-03-21T16:21:42.184Z,6.75
2023-03-21T16:24:47.016Z,6.95
2023-03-21T16:27:51.596Z,4.13
2023-03-21T16:30:56.541Z,4.25
2023-03-21T16:34:01.736Z,5.60
2023-03-21T16:37:06.625Z,8.20
2023-03-21T16:40:30.108Z,4.75
2023-03-21T16:43:34.582Z,3.88
2023-03-21T16:46:39.208Z,4.43
2023-03-21T16:49:44.742Z,5.32
2023-03-21T16:52:49.291Z,5.22
2023-03-21T16:55:54.349Z,3.53
2023-03-21T16:58:59.171Z,6.88
2023-03-21T17:02:12.447Z,4.95
2023-03-21T17:05:17.719Z,6.63
2023-03-21T17:08:22.411Z,5.32
2023-03-21T17:11:31.362Z,4.53
2023-03-21T17:14:38.091Z,3.63
2023-03-21T17:17:43.644Z,4.85
2023-03-21T17:20:48.267Z,5.30
2023-03-21T17:23:53.289Z,6.15
2023-03-21T17:26:59.138Z,4.28
2023-03-21T17:30:10.601Z,4.90
2023-03-21T17:33:15.473Z,3.58
2023-03-21T17:36:49.255Z,5.80
2023-03-21T17:40:02.322Z,2.90
2023-03-21T17:43:14.884Z,3.35
2023-03-21T17:46:25.314Z,4.50
2023-03-21T17:49:29.941Z,3.20
2023-03-21T17:52:35.318Z,3.00
2023-03-21T17:55:40.050Z,5.13
2023-03-21T17:58:44.668Z,3.67
2023-03-21T18:01:49.331Z,6.32
2023-03-21T18:04:54.050Z,5.68
2023-03-21T18:08:14.140Z,5.65
2023-03-21T18:11:20.351Z,3.85
2023-03-21T18:14:28.450Z,4.63
2023-03-21T18:17:33.671Z,3.17
2023-03-21T18:20:54.770Z,4.82
2023-03-21T18:24:02.129Z,4.55
2023-03-21T18:27:07.114Z,3.28
2023-03-21T18:30:37.502Z,4.63
2023-03-21T18:33:45.064Z,3.90
2023-03-21T18:36:49.911Z,4.68
2023-03-21T18:39:54.749Z,4.47
2023-03-21T18:43:51.602Z,4.93
2023-03-21T18:46:24.122Z,4.45
2023-03-21T18:50:10.650Z,3.30
2023-03-21T18:52:53.620Z,3.85
2023-03-21T18:55:58.367Z,3.03
2023-03-21T18:59:04.650Z,4.45
2023-03-21T19:02:12.398Z,6.13
2023-03-21T19:05:19.476Z,10.77
2023-03-21T19:08:24.043Z,8.73
2023-03-21T19:11:30.775Z,6.45
2023-03-21T19:14:35.450Z,4.07
2023-03-21T19:21:05.580Z,6.00
2023-03-21T19:24:27.129Z,4.32
2023-03-21T19:27:37.019Z,6.03
2023-03-21T19:30:49.914Z,5.07
2023-03-21T19:33:55.629Z,5.07
2023-03-21T19:37:02.589Z,5.07
2023-03-21T19:40:08.209Z,9.20
2023-03-21T19:43:31.766Z,6.00
2023-03-21T19:46:37.292Z,6.05
2023-03-21T19:50:30.750Z,6.40
2023-03-21T19:53:07.109Z,7.22
2023-03-21T19:56:21.874Z,7.72
2023-03-21T19:59:28.461Z,5.43
2023-03-21T20:02:36.064Z,7.07
2023-03-21T20:05:42.419Z,7.85
2023-03-21T20:09:34.078Z,5.72
2023-03-21T20:12:11.531Z,6.90
2023-03-21T20:15:19.437Z,6.82
2023-03-21T20:18:25.977Z,6.90
2023-03-21T20:21:41.111Z,7.60
2023-03-21T20:24:48.790Z,5.68
2023-03-21T20:28:10.946Z,6.07
2023-03-21T20:31:19.128Z,6.25
2023-03-21T20:34:23.866Z,4.38
2023-03-21T20:37:28.450Z,7.45
2023-03-21T20:40:33.231Z,7.90
2023-03-21T20:47:05.407Z,8.20
2023-03-21T20:50:13.735Z,12.07
2023-03-21T20:53:18.342Z,6.88
2023-03-21T20:56:22.981Z,10.25
2023-03-21T20:59:29.159Z,5.82
2023-03-21T21:02:33.817Z,6.47
2023-03-21T21:05:38.522Z,6.75
2023-03-21T21:08:45.612Z,8.43
2023-03-21T21:12:06.132Z,8.35
2023-03-21T21:15:14.755Z,8.52
2023-03-21T21:18:19.526Z,8.38
2023-03-21T21:21:24.057Z,11.02
2023-03-21T21:24:28.645Z,7.80
2023-03-21T21:27:33.295Z,11.57
2023-03-21T21:30:41.121Z,7.70
2023-03-21T21:33:48.312Z,10.50
2023-03-21T21:36:52.882Z,10.50
2023-03-21T21:39:57.486Z,8.48
2023-03-21T21:43:03.699Z,9.07
2023-03-21T21:46:08.687Z,9.40
2023-03-21T21:49:13.347Z,11.20
2023-03-21T21:52:21.954Z,7.72
2023-03-21T21:55:26.578Z,8.70
2023-03-21T21:58:33.710Z,7.70
2023-03-21T22:01:38.646Z,6.65
2023-03-21T22:04:43.725Z,7.88
2023-03-21T22:07:50.111Z,5.95
2023-03-21T22:10:54.818Z,12.13
2023-03-21T22:13:59.537Z,6.65
2023-03-21T22:17:04.676Z,9.52
2023-03-21T22:20:15.939Z,9.45
2023-03-21T22:23:20.557Z,9.20
2023-03-21T22:26:25.600Z,7.85
2023-03-21T22:29:30.268Z,9.88
2023-03-21T22:32:35.913Z,7.82
2023-03-21T22:35:40.532Z,13.63
2023-03-21T22:38:45.166Z,6.90
2023-03-21T22:41:49.699Z,7.95
2023-03-21T22:44:54.299Z,8.43
2023-03-21T22:47:59.870Z,7.10
2023-03-21T22:51:04.610Z,9.18
2023-03-21T22:54:09.579Z,8.07
2023-03-21T22:57:14.185Z,7.45
2023-03-21T23:00:19.932Z,7.63
2023-03-21T23:03:24.438Z,8.77
2023-03-21T23:06:29.173Z,9.35
2023-03-21T23:09:34.249Z,7.82
2023-03-21T23:12:39.342Z,10.50
2023-03-21T23:15:44.099Z,9.70
2023-03-21T23:18:49.155Z,7.32
2023-03-21T23:21:53.698Z,8.48
2023-03-21T23:24:58.574Z,8.38
2023-03-21T23:28:03.536Z,9.90
2023-03-21T23:31:10.610Z,9.55
2023-03-21T23:34:15.298Z,8.68
2023-03-21T23:37:19.879Z,12.45
2023-03-21T23:40:24.495Z,9.38
2023-03-21T23:43:29.336Z,8.15
2023-03-21T23:46:34.022Z,10.63
2023-03-21T23:49:39.054Z,12.05
2023-03-21T23:52:44.583Z,12.82
2023-03-21T23:55:51.843Z,8.55
2023-03-21T23:58:57.273Z,10.15
